EST,Max TemperatureF,Mean TemperatureF,Min TemperatureF,Max Dew PointF,MeanDew PointF,Min DewpointF,Max Humidity, Mean Humidity, Min Humidity, Max Sea Level PressureIn, Mean Sea Level PressureIn, Min Sea Level PressureIn, Max VisibilityMiles, Mean VisibilityMiles, Min VisibilityMiles, Max Wind SpeedMPH, Mean Wind SpeedMPH, Max Gust SpeedMPH,PrecipitationIn, CloudCover, Events, WindDirDegrees
2013-1-1,46,42,39,37,32,29,82,65,55,30.01,29.98,29.90,10,10,10,8,5,,0.00,4,,288
2013-1-2,39,34,28,30,22,17,76,62,43,30.22,30.10,30.00,10,10,7,14,6,21,0.00,3,Snow,348
2013-1-3,35,30,26,24,18,14,79,61,42,30.25,30.21,30.16,10,10,9,8,6,26,0.00,0,,299
2013-1-4,44,34,24,25,23,21,91,65,42,30.22,30.16,30.10,10,10,7,12,6,21,0.00,0,,273
2013-1-5,43,36,28,32,24,20,96,66,43,30.36,30.29,30.15,10,10,6,12,5,21,0.00,0,,307
2013-1-6,50,42,35,40,35,30,96,78,46,30.26,30.12,30.05,10,10,8,8,4,16,0.00,4,Rain,242
2013-1-7,48,38,26,32,29,25,96,70,44,30.45,30.33,30.13,10,10,7,13,5,20,0.00,1,,335
2013-1-8,50,37,24,40,31,22,100,85,56,30.48,30.43,30.39,10,8,2,14,2,18,0.00,2,,223
2013-1-9,57,44,32,48,42,32,100,86,69,30.41,30.35,30.25,10,9,5,9,2,,0.00,1,,228
2013-1-10,53,44,34,37,30,27,92,58,38,30.57,30.49,30.36,10,10,10,16,7,24,0.00,0,,333
2013-1-11,53,42,30,54,44,30,100,95,77,30.49,30.26,30.09,10,7,2,12,2,,0.09,6,Rain,184
2013-1-12,52,46,39,51,45,39,100,99,89,30.17,30.14,30.09,8,2,0,9,4,17,0.00,8,Fog,316
2013-1-13,53,47,41,54,47,39,100,100,93,30.17,30.11,30.04,10,1,0,14,4,20,0.00,8,Fog,200
2013-1-14,66,55,44,61,52,44,100,92,81,30.22,30.13,30.02,10,8,2,12,7,22,0.27,6,Rain,321
2013-1-15,44,42,39,45,42,39,100,97,92,30.30,30.24,30.13,10,6,2,15,10,23,0.69,8,Rain,34
2013-1-16,46,42,39,45,43,39,100,98,93,30.10,29.99,29.89,10,7,2,17,8,25,0.16,8,Rain,295
2013-1-17,43,38,32,43,38,32,100,97,89,30.13,30.05,30.00,10,4,1,12,3,16,0.33,8,Rain-Snow,349
2013-1-18,37,31,24,33,28,20,100,85,54,30.54,30.31,30.05,10,7,0,16,5,22,0.25,3,Fog-Snow,338
2013-1-19,48,36,24,41,31,22,91,70,50,30.49,30.31,30.10,10,10,10,16,9,24,0.00,0,,221
2013-1-20,57,48,37,34,29,16,63,49,37,30.06,29.94,29.84,10,10,10,21,12,26,0.00,0,,272
2013-1-21,45,36,26,43,27,18,96,71,48,30.13,29.96,29.77,10,10,10,22,6,33,0.00,1,,17
2013-1-22,30,23,16,19,4,-3,64,44,30,30.29,30.14,29.91,10,10,10,20,12,33,0.00,0,,322
2013-1-23,26,20,15,12,3,-4,71,48,29,30.34,30.27,30.19,10,10,10,14,8,26,0.00,2,,320
2013-1-24,25,22,19,21,15,7,100,78,46,30.34,30.15,30.06,10,4,0,17,9,25,0.09,7,Fog-Snow,7
2013-1-25,,,,,,,,,,,,,,,,,,,,,,
2013-1-26,33,28,24,15,14,13,69,62,48,30.41,30.34,30.20,10,10,10,14,10,22,0.00,0,,336
2013-1-27,37,28,19,19,16,11,92,69,44,30.60,30.54,30.43,10,10,8,7,4,,0.00,0,,304
2013-1-28,,,,,,,,,,,,,,,,,,,0.00,,,-1
2013-1-29,53,52,48,45,44,44,83,79,74,30.13,30.12,30.12,8,7,6,6,5,,0.00,0,,150
2013-1-30,55,54,53,55,53,51,100,94,86,29.83,29.80,29.75,10,9,2,21,17,29,0.00,5,,216
2013-1-31,50,42,32,30,21,17,54,41,33,29.95,29.76,29.61,10,10,10,21,14,29,0.00,3,,292